Terminal Aerodrome Forecast
Issued by NWS Cleveland, OH

Home | Current Version | Previous Version | Text Only | Print | Product List | Glossary On
Versions: 1 2 3 4 5 6 7 8 9 10 11 12 13 14
000
FTUS41 KCLE 240539
TAFMFD
TAF
KMFD 240539Z 2406/2506 24015G25KT P6SM BKN015 OVC035
      TEMPO 2406/2409 5SM -SHRA OVC015
     FM241200 22015G25KT P6SM SCT015 OVC040
      TEMPO 2412/2415 5SM -SHRA OVC015
     FM241500 22015G25KT P6SM VCSH BKN025
     FM241700 22015G25KT P6SM BKN035=

USA.gov is the U.S. government's official web portal to all federal, state and local government web resources and services.